Time;durP1;ratioP1;P1;durP2;ratioP2;P2;SDS_P1;SDS_P2;PMS_P1;PMS_P2;Temp;Humidity;BMP_temperature;BMP_pressure;BME280_temperature;BME280_humidity;BME280_pressure;Samples;Min_cycle;Max_cycle;Signal;HPM_P1;HPM_P2
2021/04/03 00:00:35;;;;;;;42.25;27.52;;;;;;;18.80;48.96;100508.06;4976552;28;20054;-67
2021/04/03 00:03:02;;;;;;;45.70;28.40;;;;;;;18.78;49.11;100518.84;4976608;28;20463;-67
2021/04/03 00:05:28;;;;;;;48.78;27.65;;;;;;;18.76;49.07;100521.63;4976046;28;20050;-67
2021/04/03 00:07:55;;;;;;;39.15;28.02;;;;;;;18.75;49.00;100533.25;4976496;28;20459;-67
2021/04/03 00:10:31;;;;;;;43.85;27.48;;;;;;;18.67;48.95;100534.97;4976505;28;20051;-67
2021/04/03 00:12:58;;;;;;;44.75;27.83;;;;;;;18.55;49.24;100534.28;4976223;28;20167;-67
2021/04/03 00:15:25;;;;;;;47.53;29.58;;;;;;;18.43;49.54;100542.41;4976430;28;20408;-67
2021/04/03 00:17:52;;;;;;;44.97;28.67;;;;;;;18.34;50.30;100537.16;4976384;28;20051;-67
2021/04/03 00:20:20;;;;;;;46.78;29.38;;;;;;;18.32;50.25;100539.09;4976183;28;20055;-67
2021/04/03 00:22:47;;;;;;;44.75;28.27;;;;;;;18.31;50.11;100532.09;4976070;28;20059;-67
2021/04/03 00:25:13;;;;;;;42.53;27.55;;;;;;;18.31;50.04;100526.78;4976112;28;20117;-67
2021/04/03 00:27:40;;;;;;;42.55;28.17;;;;;;;18.31;50.49;100522.34;4976103;28;20062;-67
2021/04/03 00:30:18;;;;;;;44.88;28.67;;;;;;;18.30;50.46;100525.09;4976027;28;20097;-68
2021/04/03 00:32:49;;;;;;;44.05;27.65;;;;;;;18.28;50.53;100525.25;4975958;28;20058;-67
2021/04/03 00:35:27;;;;;;;44.97;29.67;;;;;;;18.26;50.52;100517.44;4990988;28;20043;-67
2021/04/03 00:37:54;;;;;;;46.90;30.05;;;;;;;18.25;51.05;100517.59;4975893;28;20483;-67
2021/04/03 00:40:26;;;;;;;41.72;28.17;;;;;;;18.21;51.24;100530.31;4975726;28;20047;-67
2021/04/03 00:42:52;;;;;;;41.80;28.33;;;;;;;18.19;51.31;100518.16;4984970;28;20486;-66
2021/04/03 00:45:22;;;;;;;45.30;28.75;;;;;;;18.18;51.42;100530.59;4995176;28;20050;-67
2021/04/03 00:47:49;;;;;;;39.30;27.48;;;;;;;18.16;51.27;100529.06;4995165;28;20042;-67
2021/04/03 00:50:20;;;;;;;37.92;26.92;;;;;;;18.14;51.44;100533.69;4990916;28;20042;-67
2021/04/03 00:52:47;;;;;;;41.55;28.25;;;;;;;18.10;51.68;100527.81;4980426;28;20451;-67
2021/04/03 00:55:14;;;;;;;38.40;27.77;;;;;;;18.06;51.83;100516.63;4992830;28;20042;-66
2021/04/03 00:57:41;;;;;;;43.83;29.27;;;;;;;18.01;51.93;100513.56;4994824;28;20101;-67
2021/04/03 01:00:10;;;;;;;45.72;28.33;;;;;;;17.98;51.88;100519.16;4993841;28;20046;-67
2021/04/03 01:02:36;;;;;;;40.50;28.52;;;;;;;17.95;51.82;100519.41;4994956;28;20062;-66
2021/04/03 01:05:12;;;;;;;41.83;28.50;;;;;;;17.91;51.94;100518.84;4994740;28;20093;-67
2021/04/03 01:07:39;;;;;;;42.42;29.05;;;;;;;17.89;52.45;100523.47;4994683;28;20127;-66
2021/04/03 01:10:06;;;;;;;41.72;28.58;;;;;;;17.86;52.17;100517.59;4994526;28;20042;-66
2021/04/03 01:12:35;;;;;;;41.40;28.00;;;;;;;17.82;52.20;100518.84;4993596;28;20046;-66
2021/04/03 01:15:32;;;;;;;43.25;29.08;;;;;;;17.76;52.36;100513.13;4994642;28;20053;-66
2021/04/03 01:18:09;;;;;;;41.63;27.95;;;;;;;17.73;52.57;100508.09;4992698;28;20557;-66
2021/04/03 01:20:44;;;;;;;44.67;28.35;;;;;;;17.71;52.96;100504.75;4992574;28;20046;-67
2021/04/03 01:23:31;;;;;;;42.85;30.00;;;;;;;17.68;52.74;100505.00;4993354;28;20097;-66
2021/04/03 01:26:35;;;;;;;43.97;29.50;;;;;;;17.65;52.87;100507.94;4994172;28;20054;-66
2021/04/03 01:29:43;;;;;;;43.03;29.35;;;;;;;17.63;52.91;100517.84;4985607;28;20105;-66
2021/04/03 01:32:09;;;;;;;;;;;;;;;17.62;53.07;100508.22;4953325;29;20110;-66
2021/04/03 01:34:40;;;;;;;47.50;27.92;;;;;;;17.62;53.12;100509.06;4953063;29;19962;-66
2021/04/03 01:37:12;;;;;;;43.85;29.23;;;;;;;17.60;52.90;100500.41;4964055;28;20058;-66
2021/04/03 01:39:42;;;;;;;39.65;26.98;;;;;;;17.56;52.69;100501.66;4974546;28;20425;-66
2021/04/03 01:42:14;;;;;;;42.80;29.25;;;;;;;17.53;52.88;100496.63;4974364;28;20098;-66
2021/04/03 01:44:57;;;;;;;39.08;28.83;;;;;;;17.54;53.14;100487.69;4974282;28;20054;-67
2021/04/03 01:47:30;;;;;;;39.60;27.48;;;;;;;17.54;53.09;100481.56;4974194;28;20492;-67
2021/04/03 01:49:58;;;;;;;37.83;24.70;;;;;;;17.55;53.25;100475.28;4982567;28;20506;-66
2021/04/03 01:52:26;;;;;;;36.15;25.33;;;;;;;17.56;53.25;100477.78;4993052;28;20108;-66
2021/04/03 01:54:56;;;;;;;35.25;25.40;;;;;;;17.58;53.12;100482.94;4993659;28;20050;-66
2021/04/03 01:57:24;;;;;;;35.47;26.02;;;;;;;17.59;53.42;100476.66;4993525;28;20640;-66
2021/04/03 01:59:51;;;;;;;36.10;25.05;;;;;;;17.60;53.25;100476.53;4993746;28;20050;-66
2021/04/03 02:02:19;;;;;;;34.05;24.95;;;;;;;17.62;53.11;100484.34;4992361;28;20050;-66
2021/04/03 02:04:45;;;;;;;41.50;25.55;;;;;;;17.62;53.26;100485.19;4993662;28;20054;-66
2021/04/03 02:07:20;;;;;;;40.03;25.60;;;;;;;17.61;53.24;100483.50;4993266;28;20054;-66
2021/04/03 02:09:49;;;;;;;39.03;26.25;;;;;;;17.60;53.11;100483.66;4993124;28;20556;-66
2021/04/03 02:12:16;;;;;;;38.10;26.23;;;;;;;17.60;53.18;100487.13;4993202;28;20101;-66
2021/04/03 02:14:44;;;;;;;36.85;26.77;;;;;;;17.59;53.24;100488.09;4993190;28;20577;-66
2021/04/03 02:17:10;;;;;;;42.90;26.17;;;;;;;17.58;53.06;100490.91;4991259;28;20046;-67
2021/04/03 02:19:38;;;;;;;39.20;27.30;;;;;;;17.55;53.10;100492.03;4973693;28;20058;-66
2021/04/03 02:22:04;;;;;;;37.35;27.90;;;;;;;17.54;53.09;100490.34;4987106;28;20411;-67
2021/04/03 02:24:31;;;;;;;42.53;29.40;;;;;;;17.53;53.10;100493.13;4993085;28;20487;-66
2021/04/03 02:26:57;;;;;;;39.53;27.92;;;;;;;17.52;53.08;100502.06;4993153;28;20046;-66
2021/04/03 02:29:23;;;;;;;42.80;29.27;;;;;;;17.50;53.18;100490.78;4993026;28;20050;-66
2021/04/03 02:31:50;;;;;;;42.75;28.08;;;;;;;17.45;53.29;100489.34;4993197;28;20054;-66
2021/04/03 02:34:16;;;;;;;38.45;27.95;;;;;;;17.44;53.32;100490.31;4992704;28;20518;-67
2021/04/03 02:36:42;;;;;;;44.35;29.02;;;;;;;17.41;53.44;100489.78;4992918;28;20050;-66
2021/04/03 02:39:08;;;;;;;42.30;28.45;;;;;;;17.41;53.16;100497.75;4992716;28;20050;-66
2021/04/03 02:41:54;;;;;;;43.25;28.70;;;;;;;17.40;53.19;100496.06;4992945;28;20050;-66
2021/04/03 02:44:30;;;;;;;42.03;27.08;;;;;;;17.37;53.04;100497.16;4992929;28;20462;-66
2021/04/03 02:47:07;;;;;;;40.90;26.42;;;;;;;17.35;53.29;100496.47;4992812;28;20101;-66
2021/04/03 02:49:39;;;;;;;37.78;24.38;;;;;;;17.33;53.20;100500.22;4980903;28;20570;-66
2021/04/03 02:52:06;;;;;;;37.53;25.52;;;;;;;17.30;52.95;100493.38;4973099;28;20042;-66
2021/04/03 02:54:34;;;;;;;38.03;26.63;;;;;;;17.28;53.58;100498.84;4973464;28;20491;-66
2021/04/03 02:57:01;;;;;;;42.75;27.45;;;;;;;17.27;53.54;100498.97;4973152;28;20419;-66
2021/04/03 02:59:31;;;;;;;41.53;27.63;;;;;;;17.26;53.64;100499.94;4973327;28;20043;-66
2021/04/03 03:02:00;;;;;;;35.85;25.95;;;;;;;17.26;53.53;100499.94;4972366;28;20129;-66
2021/04/03 03:04:27;;;;;;;37.42;25.73;;;;;;;17.24;53.72;100500.09;4988365;28;20054;-67
2021/04/03 03:06:55;;;;;;;37.67;25.83;;;;;;;17.24;53.82;100501.88;4988899;28;20050;-66
2021/04/03 03:09:22;;;;;;;36.33;25.27;;;;;;;17.21;54.11;100502.16;4989277;28;20043;-66
2021/04/03 03:11:54;;;;;;;38.42;25.73;;;;;;;17.19;54.13;100506.75;4976246;28;20047;-67
2021/04/03 03:14:22;;;;;;;39.10;24.85;;;;;;;17.16;54.43;100512.34;4970149;28;20057;-65
2021/04/03 03:16:52;;;;;;;37.22;24.92;;;;;;;17.13;54.43;100514.28;4984833;28;20053;-66
2021/04/03 03:19:20;;;;;;;36.15;24.52;;;;;;;17.10;54.68;100514.56;4969797;28;20138;-67
2021/04/03 03:21:48;;;;;;;36.45;25.27;;;;;;;17.09;54.94;100509.38;4970244;28;20503;-66
2021/04/03 03:24:15;;;;;;;36.72;24.52;;;;;;;17.07;55.15;100517.47;4973931;28;20058;-66
2021/04/03 03:26:42;;;;;;;36.00;23.13;;;;;;;17.06;55.36;100517.59;4973703;28;20047;-66
2021/04/03 03:29:11;;;;;;;30.88;22.67;;;;;;;17.05;55.51;100519.44;4973324;28;20054;-66
2021/04/03 03:31:41;;;;;;;34.22;23.40;;;;;;;17.04;55.55;100520.41;4973507;28;20055;-66
2021/04/03 03:34:09;;;;;;;32.92;22.17;;;;;;;17.05;55.98;100523.88;4973356;28;20062;-66
2021/04/03 03:36:37;;;;;;;36.05;22.00;;;;;;;17.04;56.11;100517.75;4973401;28;20047;-66
2021/04/03 03:39:05;;;;;;;30.27;19.85;;;;;;;17.03;56.48;100518.72;4992830;28;20050;-66
2021/04/03 03:41:34;;;;;;;28.85;19.80;;;;;;;17.03;56.75;100520.53;4993097;28;20042;-66
2021/04/03 03:44:10;;;;;;;27.90;18.92;;;;;;;17.01;57.03;100517.19;4992764;28;20050;-67
2021/04/03 03:46:47;;;;;;;28.05;19.33;;;;;;;17.00;57.26;100521.66;4992504;28;20050;-66
2021/04/03 03:49:18;;;;;;;27.55;18.23;;;;;;;17.01;57.61;100522.47;4992131;28;20513;-66
2021/04/03 03:51:45;;;;;;;23.95;17.33;;;;;;;16.99;57.55;100527.91;4991842;28;20050;-68
2021/04/03 03:54:11;;;;;;;22.65;16.42;;;;;;;16.98;57.73;100518.28;4984791;28;20470;-66
2021/04/03 03:56:37;;;;;;;20.88;15.60;;;;;;;16.96;57.95;100521.06;4992523;28;20053;-66
2021/04/03 03:59:03;;;;;;;22.60;15.48;;;;;;;16.94;58.30;100525.66;4992380;28;20108;-66
2021/04/03 04:01:29;;;;;;;25.33;16.02;;;;;;;16.93;58.13;100529.28;4992431;28;20046;-66
2021/04/03 04:03:55;;;;;;;22.83;15.75;;;;;;;16.92;58.41;100532.06;4992345;28;20491;-66
2021/04/03 04:06:22;;;;;;;23.10;14.88;;;;;;;16.91;58.65;100536.53;4992268;28;20054;-66
2021/04/03 04:08:48;;;;;;;44.35;27.17;;;;;;;16.91;58.76;100536.53;4992295;28;20486;-66
2021/04/03 04:11:14;;;;;;;48.35;29.50;;;;;;;16.93;58.85;100539.06;4992145;28;20450;-66
2021/04/03 04:13:40;;;;;;;50.63;28.38;;;;;;;16.93;58.87;100544.34;4992062;28;20061;-66
2021/04/03 04:16:06;;;;;;;33.92;21.52;;;;;;;16.91;59.00;100546.28;4992102;28;20113;-66
2021/04/03 04:18:32;;;;;;;26.48;18.23;;;;;;;16.90;58.95;100542.78;4992494;28;20078;-66
2021/04/03 04:20:59;;;;;;;22.60;15.15;;;;;;;16.91;59.15;100557.75;4992064;28;20089;-66
2021/04/03 04:23:26;;;;;;;23.17;15.32;;;;;;;16.91;59.12;100551.59;4992109;28;20051;-66
2021/04/03 04:25:52;;;;;;;21.90;14.45;;;;;;;16.90;59.11;100549.88;4987584;28;20062;-66
2021/04/03 04:28:18;;;;;;;23.63;13.95;;;;;;;16.88;59.29;100557.97;4972501;28;20114;-66
2021/04/03 04:30:44;;;;;;;20.80;13.48;;;;;;;16.87;59.03;100561.59;4972658;28;20051;-66
2021/04/03 04:33:10;;;;;;;21.63;13.68;;;;;;;16.88;59.15;100557.97;4972202;28;20574;-66
2021/04/03 04:35:37;;;;;;;22.73;14.13;;;;;;;16.85;59.33;100566.19;4972726;28;20068;-66
2021/04/03 04:38:03;;;;;;;20.70;14.27;;;;;;;16.86;59.26;100569.66;4972205;28;20047;-66
2021/04/03 04:40:29;;;;;;;19.17;13.55;;;;;;;16.85;59.01;100565.34;4972418;28;20058;-66
2021/04/03 04:42:57;;;;;;;18.75;14.20;;;;;;;16.85;59.41;100576.78;4972185;28;20046;-66
2021/04/03 04:45:23;;;;;;;21.00;13.27;;;;;;;16.85;59.14;100579.44;4972146;28;20082;-67
2021/04/03 04:47:50;;;;;;;19.48;13.40;;;;;;;16.84;59.28;100577.75;4975128;28;20100;-66
2021/04/03 04:50:16;;;;;;;17.38;13.68;;;;;;;16.83;59.50;100585.84;4991737;28;20042;-67
2021/04/03 04:52:42;;;;;;;19.67;13.93;;;;;;;16.81;59.39;100586.81;4991472;28;20042;-66
2021/04/03 04:55:08;;;;;;;19.02;12.23;;;;;;;16.81;59.50;100589.47;4991555;28;20043;-66
2021/04/03 04:57:34;;;;;;;17.77;12.38;;;;;;;16.80;59.54;100590.44;4980733;28;20047;-67
2021/04/03 05:00:01;;;;;;;18.42;13.35;;;;;;;16.80;59.38;100595.72;4972375;28;20054;-66
2021/04/03 05:02:27;;;;;;;18.00;12.30;;;;;;;16.80;59.60;100603.69;4972185;28;20138;-66
2021/04/03 05:04:53;;;;;;;17.58;13.10;;;;;;;16.78;59.46;100595.00;4972142;28;20057;-67
2021/04/03 05:07:19;;;;;;;19.45;12.75;;;;;;;16.80;59.50;100601.03;4972218;28;20102;-67
2021/04/03 05:09:46;;;;;;;17.85;12.50;;;;;;;16.78;59.47;100600.31;4972425;28;20047;-66
2021/04/03 05:12:12;;;;;;;16.67;12.25;;;;;;;16.79;59.71;100607.28;4971810;28;20054;-67
2021/04/03 05:14:38;;;;;;;16.13;11.90;;;;;;;16.78;59.47;100610.09;4974578;28;20046;-67
2021/04/03 05:17:04;;;;;;;18.45;12.48;;;;;;;16.79;59.65;100611.78;4991394;28;20097;-67
2021/04/03 05:19:39;;;;;;;17.75;13.57;;;;;;;16.79;59.77;100611.78;4982737;28;20050;-66
2021/04/03 05:22:13;;;;;;;18.48;12.32;;;;;;;16.81;59.63;100615.09;4979503;28;20054;-66
2021/04/03 05:24:44;;;;;;;16.48;12.20;;;;;;;16.81;59.40;100618.63;4971829;28;20105;-67
2021/04/03 05:27:10;;;;;;;28.65;13.15;;;;;;;16.84;59.56;100614.03;4971721;28;20059;-66
2021/04/03 05:29:36;;;;;;;17.45;12.52;;;;;;;16.83;59.41;100610.53;4972170;28;20106;-66
2021/04/03 05:32:04;;;;;;;16.98;12.55;;;;;;;16.85;59.46;100613.91;4971720;28;20055;-67
2021/04/03 05:34:30;;;;;;;19.63;14.02;;;;;;;16.85;59.43;100616.56;4971620;28;20053;-66
2021/04/03 05:37:16;;;;;;;16.08;12.02;;;;;;;16.86;59.29;100615.59;4971519;28;20074;-67
2021/04/03 05:39:42;;;;;;;18.88;12.18;;;;;;;16.89;59.33;100615.31;4971653;28;20109;-67
2021/04/03 05:42:15;;;;;;;17.08;11.60;;;;;;;16.90;59.34;100622.28;4971353;28;20133;-66
2021/04/03 05:44:42;;;;;;;19.08;12.43;;;;;;;16.92;59.35;100620.38;4970999;28;20063;-68
2021/04/03 05:47:09;;;;;;;19.67;12.02;;;;;;;16.93;59.45;100611.44;4970885;28;20058;-67
2021/04/03 05:49:35;;;;;;;18.48;12.15;;;;;;;16.95;59.48;100617.47;4990935;28;20042;-67
2021/04/03 05:52:05;;;;;;;17.48;12.30;;;;;;;16.98;59.25;100617.19;4990855;28;20089;-66
2021/04/03 05:54:37;;;;;;;17.60;11.73;;;;;;;17.02;59.33;100628.38;4990681;28;20486;-67
2021/04/03 05:57:07;;;;;;;19.33;12.05;;;;;;;17.04;59.38;100625.59;4990856;28;20050;-66
2021/04/03 05:59:34;;;;;;;20.23;12.07;;;;;;;17.07;59.18;100631.47;4990580;28;20442;-66
2021/04/03 06:02:00;;;;;;;16.10;12.15;;;;;;;17.10;59.13;100638.31;4990538;28;20058;-66
2021/04/03 06:04:26;;;;;;;20.25;12.82;;;;;;;17.11;59.29;100630.22;4990542;28;20085;-67
2021/04/03 06:06:54;;;;;;;16.55;12.35;;;;;;;17.12;59.11;100637.22;4978402;28;20046;-66
2021/04/03 06:09:20;;;;;;;20.27;12.48;;;;;;;17.16;59.30;100647.56;4970896;28;20145;-66
2021/04/03 06:11:50;;;;;;;21.60;12.35;;;;;;;17.18;59.21;100642.97;4970857;28;20051;-66
2021/04/03 06:14:17;;;;;;;15.38;10.95;;;;;;;17.21;59.12;100648.00;4970804;28;20059;-67
2021/04/03 06:16:45;;;;;;;14.10;10.75;;;;;;;17.24;59.04;100647.72;4970802;28;20070;-67
2021/04/03 06:19:14;;;;;;;17.50;10.93;;;;;;;17.27;58.73;100663.41;4970769;28;20495;-66
2021/04/03 06:21:42;;;;;;;22.83;12.10;;;;;;;17.29;58.68;100666.75;4970927;28;20100;-66
2021/04/03 06:24:26;;;;;;;16.90;11.38;;;;;;;17.32;58.61;100671.78;4970724;28;20050;-65
2021/04/03 06:26:58;;;;;;;13.93;11.05;;;;;;;17.35;58.57;100676.00;4970718;28;20047;-66
2021/04/03 06:29:33;;;;;;;16.88;11.60;;;;;;;17.37;58.34;100674.03;4970619;28;20046;-66
2021/04/03 06:32:00;;;;;;;16.88;11.73;;;;;;;17.41;58.29;100681.59;4970630;28;20068;-65
2021/04/03 06:34:37;;;;;;;18.52;12.05;;;;;;;17.44;58.07;100683.97;4970388;28;20094;-66
2021/04/03 06:37:05;;;;;;;19.73;11.40;;;;;;;17.48;57.76;100676.59;4970757;28;20050;-67
2021/04/03 06:39:50;;;;;;;16.48;11.82;;;;;;;17.53;57.87;100670.91;4970495;28;20054;-66
2021/04/03 06:42:47;;;;;;;20.75;11.65;;;;;;;17.58;57.60;100671.34;4970745;28;20278;-66
2021/04/03 06:45:18;;;;;;;15.52;10.93;;;;;;;17.64;57.08;100678.75;4970541;28;20151;-66
2021/04/03 06:47:46;;;;;;;19.30;11.05;;;;;;;17.71;57.22;100682.56;4970552;28;20450;-66
2021/04/03 06:50:18;;;;;;;18.42;11.35;;;;;;;17.77;56.94;100684.66;4970134;28;20051;-66
2021/04/03 06:52:44;;;;;;;14.43;10.52;;;;;;;17.84;56.66;100679.66;4970394;28;20051;-66
2021/04/03 06:55:14;;;;;;;20.30;11.05;;;;;;;17.88;56.28;100677.56;4969855;28;20131;-65
2021/04/03 06:57:44;;;;;;;16.17;10.25;;;;;;;17.92;55.63;100676.31;4969261;28;20511;-65
2021/04/03 07:00:13;;;;;;;17.80;11.18;;;;;;;17.97;55.06;100687.41;4970211;28;20074;-65
2021/04/03 07:02:47;;;;;;;17.38;10.52;;;;;;;18.01;54.83;100685.31;4970318;28;20097;-66
2021/04/03 07:05:15;;;;;;;16.52;10.50;;;;;;;18.05;54.68;100684.88;4970082;28;20058;-66
2021/04/03 07:07:43;;;;;;;23.50;11.50;;;;;;;18.10;54.71;100687.13;4970251;28;20101;-65
2021/04/03 07:10:13;;;;;;;16.40;11.10;;;;;;;18.15;54.28;100700.00;4970072;28;20511;-66
2021/04/03 07:12:40;;;;;;;19.98;12.45;;;;;;;18.19;53.87;100683.66;4970023;28;20101;-65
2021/04/03 07:15:08;;;;;;;21.30;11.63;;;;;;;18.26;53.94;100697.22;4969927;28;20050;-65
2021/04/03 07:17:43;;;;;;;18.30;11.45;;;;;;;18.30;53.51;100700.44;4970167;28;20055;-66
2021/04/03 07:20:14;;;;;;;21.92;12.40;;;;;;;18.34;53.24;100700.03;4969854;28;20563;-66
2021/04/03 07:22:54;;;;;;;18.20;12.35;;;;;;;18.39;52.79;100696.97;4969795;28;20270;-66
2021/04/03 07:25:22;;;;;;;22.63;12.73;;;;;;;18.46;52.77;100700.72;4969872;28;20475;-66
2021/04/03 07:27:49;;;;;;;21.33;12.07;;;;;;;18.49;52.41;100707.59;4970241;28;20046;-66
2021/04/03 07:30:35;;;;;;;22.70;12.00;;;;;;;18.53;51.95;100709.81;4969873;28;20047;-65
2021/04/03 07:33:14;;;;;;;27.80;13.15;;;;;;;18.59;52.08;100716.41;4969849;28;20066;-65
2021/04/03 07:35:48;;;;;;;23.83;12.77;;;;;;;18.64;51.68;100724.81;4969855;28;20050;-66
2021/04/03 07:38:35;;;;;;;18.63;12.50;;;;;;;18.67;51.39;100719.19;4969778;28;20063;-66
2021/04/03 07:41:10;;;;;;;21.35;12.57;;;;;;;18.72;51.46;100722.25;4970107;28;20051;-66
2021/04/03 07:43:40;;;;;;;16.77;11.73;;;;;;;18.81;51.34;100733.88;4970030;28;20062;-67
2021/04/03 07:46:13;;;;;;;19.17;11.48;;;;;;;18.88;50.72;100729.69;4969643;28;20538;-66
2021/04/03 07:48:57;;;;;;;18.98;11.38;;;;;;;18.98;50.38;100740.34;4969772;28;20054;-67
2021/04/03 07:51:23;;;;;;;16.15;10.77;;;;;;;19.01;49.86;100744.53;4978195;28;20042;-66
2021/04/03 07:53:53;;;;;;;20.15;10.93;;;;;;;19.05;49.88;100748.59;4988736;28;20057;-64
2021/04/03 07:56:22;;;;;;;16.63;10.57;;;;;;;19.12;49.76;100748.84;4988660;28;20046;-65
2021/04/03 07:58:50;;;;;;;16.48;10.45;;;;;;;19.03;49.29;100748.75;4989048;28;20109;-64
2021/04/03 08:01:28;;;;;;;14.73;10.40;;;;;;;18.93;49.46;100767.34;4983782;28;20039;-66
2021/04/03 08:04:04;;;;;;;16.20;10.10;;;;;;;18.90;49.51;100764.97;4984236;28;20399;-68
2021/04/03 08:06:34;;;;;;;16.23;10.60;;;;;;;18.83;49.34;100768.28;4969785;28;20051;-68
2021/04/03 08:09:04;;;;;;;12.07;9.32;;;;;;;18.81;49.22;100770.28;4991133;28;20066;-67
2021/04/03 08:11:30;;;;;;;19.05;9.98;;;;;;;18.87;49.05;100777.69;4992547;28;20128;-68
2021/04/03 08:13:58;;;;;;;14.30;9.40;;;;;;;18.86;49.34;100776.84;4992307;28;20058;-67
2021/04/03 08:16:28;;;;;;;17.70;9.13;;;;;;;18.88;49.14;100782.00;4989552;28;20108;-65
2021/04/03 08:18:57;;;;;;;12.75;8.55;;;;;;;18.86;48.92;100794.63;4987601;28;20109;-65
2021/04/03 08:21:25;;;;;;;13.23;8.27;;;;;;;18.89;48.67;100789.88;4987093;28;20054;-65
2021/04/03 08:23:54;;;;;;;13.30;8.07;;;;;;;18.88;48.53;100796.16;4991644;28;20108;-64
2021/04/03 08:26:25;;;;;;;15.25;8.32;;;;;;;18.85;48.79;100798.25;4991644;28;20082;-63
2021/04/03 08:28:52;;;;;;;13.18;7.82;;;;;;;18.79;48.99;100798.81;4991433;28;20046;-69
2021/04/03 08:31:22;;;;;;;11.85;8.40;;;;;;;18.72;48.84;100801.19;4985342;28;20104;-66
2021/04/03 08:33:51;;;;;;;11.80;7.97;;;;;;;18.65;48.93;100808.88;4972579;28;20051;-66
2021/04/03 08:36:20;;;;;;;12.63;8.40;;;;;;;18.66;49.06;100801.72;5010532;28;20047;-63
2021/04/03 08:38:47;;;;;;;9.10;7.70;;;;;;;18.71;48.85;100805.63;4991490;28;20097;-61
2021/04/03 08:41:24;;;;;;;10.43;7.40;;;;;;;18.70;49.01;100811.97;4986828;28;20439;-63
2021/04/03 08:43:52;;;;;;;13.88;7.65;;;;;;;18.75;48.86;100820.38;5022226;28;20058;-66
2021/04/03 08:46:19;;;;;;;10.68;6.28;;;;;;;18.81;48.59;100818.94;4990306;28;20049;-66
2021/04/03 08:48:53;;;;;;;10.73;6.75;;;;;;;18.87;48.59;100829.03;4991367;28;20108;-66
2021/04/03 08:51:19;;;;;;;14.25;6.57;;;;;;;18.95;48.25;100835.53;4991567;28;20038;-68
2021/04/03 08:53:50;;;;;;;10.15;6.75;;;;;;;18.96;47.99;100842.50;4982376;28;20051;-66
2021/04/03 08:56:36;;;;;;;9.82;6.10;;;;;;;18.89;48.34;100842.19;4972284;28;20096;-64
2021/04/03 08:59:08;;;;;;;9.82;5.68;;;;;;;18.79;48.10;100852.81;4972247;28;20074;-65
2021/04/03 09:01:39;;;;;;;9.75;6.30;;;;;;;18.74;48.21;100858.56;4977965;28;20046;-66
2021/04/03 09:04:07;;;;;;;12.20;7.07;;;;;;;18.70;48.27;100862.47;4989114;28;20049;-65
2021/04/03 09:06:44;;;;;;;9.93;5.55;;;;;;;18.64;48.19;100867.47;4990126;28;20047;-65
2021/04/03 09:09:12;;;;;;;12.90;6.22;;;;;;;18.62;48.01;100866.78;4991309;28;20050;-62
2021/04/03 09:11:38;;;;;;;8.38;5.32;;;;;;;18.59;48.20;100868.72;4982367;28;20451;-65
2021/04/03 09:14:05;;;;;;;8.65;4.40;;;;;;;18.57;47.86;100865.34;4971707;28;20090;-65
2021/04/03 09:16:37;;;;;;;9.80;4.10;;;;;;;18.56;47.64;100877.00;4971375;28;20774;-65
2021/04/03 09:19:04;;;;;;;10.82;3.95;;;;;;;18.54;47.52;100878.94;4970781;28;20047;-65
2021/04/03 09:21:30;;;;;;;5.47;3.30;;;;;;;18.52;47.38;100890.66;4971218;28;20117;-66
2021/04/03 09:23:56;;;;;;;10.88;3.60;;;;;;;18.70;46.73;100889.06;4971948;28;20062;-65
2021/04/03 09:26:36;;;;;;;11.15;3.40;;;;;;;18.86;46.22;100895.66;4971436;28;20054;-64
2021/04/03 09:29:10;;;;;;;5.43;2.47;;;;;;;18.94;45.82;100890.50;4971563;28;20451;-65
2021/04/03 09:31:42;;;;;;;7.45;2.58;;;;;;;18.93;45.17;100896.78;4974551;28;20046;-66
2021/04/03 09:34:17;;;;;;;5.70;2.80;;;;;;;18.92;44.81;100903.94;4989650;28;20050;-64
2021/04/03 09:36:50;;;;;;;8.68;2.70;;;;;;;18.90;44.91;100900.56;4985905;28;20433;-62
2021/04/03 09:39:19;;;;;;;5.60;2.60;;;;;;;18.96;44.56;100911.63;4989113;28;20054;-61
2021/04/03 09:41:48;;;;;;;8.27;2.63;;;;;;;19.05;44.30;100909.00;4987743;28;20121;-64
2021/04/03 09:44:14;;;;;;;6.60;2.38;;;;;;;19.15;43.60;100902.88;5021064;28;20371;-62
2021/04/03 09:46:41;;;;;;;6.68;2.78;;;;;;;19.12;43.15;100909.28;4988728;28;20046;-65
2021/04/03 09:49:11;;;;;;;11.57;2.90;;;;;;;19.02;43.21;100911.94;4989662;28;20046;-63
2021/04/03 09:51:38;;;;;;;7.47;2.40;;;;;;;18.93;43.30;100910.09;4989636;28;20076;-63
2021/04/03 09:54:05;;;;;;;6.80;2.30;;;;;;;19.08;42.79;100905.22;4989701;28;20517;-68
2021/04/03 09:56:32;;;;;;;8.38;2.30;;;;;;;19.31;42.00;100904.94;4989197;28;20043;-66
2021/04/03 09:58:59;;;;;;;7.35;2.65;;;;;;;19.63;41.38;100907.31;4989870;28;20069;-64
2021/04/03 10:01:26;;;;;;;6.60;2.80;;;;;;;19.88;41.08;100913.91;4989648;28;20050;-61
2021/04/03 10:03:56;;;;;;;5.25;2.55;;;;;;;20.23;40.27;100907.03;4989968;28;20054;-65
2021/04/03 10:06:22;;;;;;;5.68;2.30;;;;;;;20.47;39.79;100908.34;4987196;28;20408;-63
2021/04/03 10:08:49;;;;;;;7.15;2.85;;;;;;;20.61;39.55;100908.81;5004775;28;20042;-64
2021/04/03 10:11:15;;;;;;;11.20;3.15;;;;;;;20.67;38.59;100903.75;4987150;28;20046;-62
2021/04/03 10:13:44;;;;;;;6.35;2.95;;;;;;;20.57;38.26;100918.97;4986502;28;20062;-62
2021/04/03 10:16:10;;;;;;;12.48;2.60;;;;;;;20.67;37.26;100909.09;4989137;28;20050;-62
2021/04/03 10:18:36;;;;;;;12.43;3.15;;;;;;;20.82;36.54;100917.47;4989339;28;20053;-62
2021/04/03 10:21:03;;;;;;;13.10;3.22;;;;;;;20.63;35.99;100913.06;4989397;28;20065;-62
2021/04/03 10:23:29;;;;;;;8.43;2.42;;;;;;;20.82;34.81;100921.94;4989693;28;20046;-63
2021/04/03 10:25:55;;;;;;;9.52;2.22;;;;;;;21.01;34.61;100924.50;4989328;28;20138;-63
2021/04/03 10:28:21;;;;;;;9.32;2.33;;;;;;;21.20;33.99;100926.19;4986719;28;20073;-62
2021/04/03 10:30:48;;;;;;;6.63;2.63;;;;;;;21.29;33.81;100921.78;4988684;28;20105;-63
2021/04/03 10:33:14;;;;;;;10.95;2.38;;;;;;;21.48;33.34;100923.44;4989142;28;20053;-60
2021/04/03 10:35:40;;;;;;;11.93;2.03;;;;;;;21.66;32.82;100923.44;4989042;28;20109;-63
2021/04/03 10:38:06;;;;;;;8.93;2.35;;;;;;;21.80;32.57;100930.06;4989254;28;20109;-71
2021/04/03 10:40:32;;;;;;;7.38;2.28;;;;;;;21.93;32.66;100913.59;4988706;28;20104;-62
2021/04/03 10:42:59;;;;;;;9.00;2.53;;;;;;;22.07;32.38;100914.84;4989017;28;20042;-64
2021/04/03 10:45:25;;;;;;;15.63;2.50;;;;;;;22.20;31.98;100908.25;4987906;28;20050;-62
2021/04/03 10:47:51;;;;;;;8.10;2.53;;;;;;;22.30;31.64;100917.81;4988636;28;20408;-71
2021/04/03 10:50:18;;;;;;;10.80;2.78;;;;;;;22.31;31.97;100903.44;4988630;28;20443;-65
2021/04/03 10:52:44;;;;;;;6.53;2.75;;;;;;;22.28;31.95;100906.44;4986826;28;20487;-64
2021/04/03 10:55:11;;;;;;;10.77;3.13;;;;;;;22.52;31.74;100909.41;4988616;28;20104;-62
2021/04/03 10:57:37;;;;;;;14.05;2.42;;;;;;;22.67;31.24;100905.13;4987916;28;20466;-63
2021/04/03 11:00:05;;;;;;;9.13;2.58;;;;;;;22.70;31.11;100903.94;4986584;28;20047;-62
2021/04/03 11:02:31;;;;;;;15.40;3.25;;;;;;;22.72;31.06;100905.47;4988750;28;20077;-65
2021/04/03 11:04:57;;;;;;;9.88;3.33;;;;;;;22.81;31.01;100909.00;4989718;28;20495;-63
2021/04/03 11:07:23;;;;;;;7.70;2.33;;;;;;;23.04;30.21;100903.03;4988892;28;20686;-70
2021/04/03 11:09:49;;;;;;;10.05;2.85;;;;;;;23.12;29.77;100913.72;4986380;28;20061;-61
2021/04/03 11:12:15;;;;;;;10.57;2.67;;;;;;;23.22;29.94;100917.13;4988623;28;20502;-66
2021/04/03 11:14:42;;;;;;;8.43;2.50;;;;;;;23.38;29.47;100920.84;4988255;28;20109;-62
2021/04/03 11:17:09;;;;;;;6.40;2.47;;;;;;;23.56;29.20;100916.13;4981714;28;20450;-62
2021/04/03 11:19:36;;;;;;;8.23;2.17;;;;;;;23.63;29.00;100919.81;4971731;28;20506;-67
2021/04/03 11:22:02;;;;;;;5.05;2.20;;;;;;;23.71;29.16;100920.81;4984197;28;20109;-64